中部国際空港の過去48時間の天気

中部国際空港 (Chubu Centrair International)

現在時刻: 1/19 20:27 JST (1/19 11:27 UTC) 以下の時間は現地時間です。

過去48時間のMETAR気象情報
時間 風向 風速(m/s) 視程 気温(℃) 湿度(%) 気圧(hPa) 天気現象
19 20:00 静穏 0 10km以上 8 61 1020
19 19:30 北北東 3 10km以上 9 57 1021
19 19:00 3 10km以上 8 57 1020
19 18:30 北北東 2 10km以上 9 53 1020
19 18:00 北北東 4 10km以上 9 57 1020
19 17:30 5 10km以上 9 53 1020
19 17:00 5 10km以上 9 53 1020
19 16:30 6 10km以上 10 50 1020
19 16:00 4 10km以上 11 47 1021
19 15:30 北北西 4 10km以上 11 50 1021
19 15:00 北北西 3 10km以上 11 47 1021
19 14:30 北西 3 10km以上 10 54 1021
19 14:00 北西 3 10km以上 10 50 1021
19 13:30 不定 1 10km以上 10 54 1022
19 13:00 不定 1 10km以上 10 54 1022
19 12:30 不定 1 10km以上 9 53 1023
19 12:00 北西 2 10km以上 9 57 1023
19 11:30 北北西 3 10km以上 9 57 1024
19 11:00 北北西 2 10km以上 8 66 1024
19 10:30 北北西 3 10km以上 8 66 1025
19 10:00 北西 3 10km以上 8 71 1025
19 09:30 北北西 4 10km以上 7 70 1025
19 09:00 北北西 4 10km以上 7 76 1024
19 08:30 北北西 5 10km以上 7 76 1024
19 08:00 北北西 6 10km以上 6 76 1024
19 07:30 北北西 5 10km以上 5 81 1024
19 07:00 北北西 5 10km以上 5 81 1024
19 06:30 北北西 5 10km以上 6 76 1024
19 06:00 北北西 6 10km以上 5 75 1023
19 05:30 北北西 7 10km以上 6 70 1023
19 05:00 北北西 7 10km以上 6 70 1023
19 04:30 北西 7 10km以上 6 70 1023
19 04:00 北北西 7 10km以上 6 76 1023
19 03:30 北北西 6 10km以上 5 75 1023
19 03:00 西北西 6 10km以上 6 76 1023
19 02:30 北西 5 10km以上 6 76 1024
19 02:00 北北西 4 10km以上 6 70 1023
19 01:30 5 10km以上 4 70 1023
19 01:00 北北西 4 10km以上 6 65 1023
19 00:30 北北西 5 10km以上 5 70 1023
19 00:00 北北西 5 10km以上 5 65 1023
18 23:30 6 10km以上 6 65 1023
18 23:00 北北西 7 10km以上 6 70 1024
18 22:30 北北西 7 10km以上 7 66 1024
18 22:00 北西 6 10km以上 6 70 1023
18 21:30 北北西 7 10km以上 6 65 1023
18 21:00 北北西 7 10km以上 6 70 1023
18 20:30 北北西 9 10km以上 5 65 1023
18 20:00 北北西 10 10km以上 6 65 1023
18 19:30 北西 10 10km以上 7 66 1023
18 19:00 北北西 9 10km以上 6 61 1023
18 18:30 北西 9 10km以上 7 61 1023
18 18:00 北北西 9 10km以上 7 61 1022
18 17:30 北西 11 10km以上 7 61 1022
18 17:00 北北西 11 10km以上 7 61 1022
18 16:30 北北西 11 10km以上 7 61 1022
18 16:00 北北西 12 10km以上 8 57 1021
18 15:30 北西 10 10km以上 8 53 1021
18 15:00 北西 10 10km以上 8 53 1021
18 14:30 北西 12 10km以上 8 53 1020
18 14:00 北西 12 10km以上 8 53 1020
18 13:30 北西 11 10km以上 8 53 1020
18 13:00 西北西 10 10km以上 8 53 1021
18 12:30 北西 9 10km以上 8 53 1021
18 12:00 北西 12 10km以上 7 61 1021
18 11:30 北北西 8 10km以上 7 57 1022
18 11:00 北北西 7 10km以上 7 45 1022
18 10:30 北北西 7 10km以上 7 53 1022
18 10:00 6 10km以上 7 45 1022
18 09:30 8 10km以上 6 49 1022
18 09:00 8 10km以上 5 52 1022
18 08:30 9 10km以上 5 48 1021
18 08:00 北北西 8 10km以上 5 56 1021
18 07:30 北西 9 10km以上 5 56 1021
18 07:00 北西 11 10km以上 5 65 1020
18 06:30 北西 13 10km以上 6 61 1020
18 06:00 北北西 10 10km以上 6 61 1019
18 05:30 北北西 10 10km以上 5 56 1019
18 05:00 北北西 11 10km以上 6 61 1019
18 04:30 北北西 11 10km以上 6 65 1018
18 04:00 北北西 11 10km以上 6 70 1017
18 03:30 北西 12 10km以上 7 66 1017
18 03:00 西北西 11 10km以上 7 76 1017 周辺でしゅう雨
18 02:30 北西 12 10km以上 7 70 1016 弱い雨
18 02:00 北西 11 10km以上 7 70 1016 周辺でしゅう雨
18 01:30 北西 10 10km以上 7 70 1016 周辺でしゅう雨
18 01:00 西北西 10 10km以上 7 70 1015 周辺でしゅう雨
18 00:30 北西 9 10km以上 8 66 1016 周辺でしゅう雨
18 00:00 北北西 12 10km以上 7 76 1016 弱い雨
17 23:30 北北西 7 10km以上 7 66 1016 周辺でしゅう雨
17 23:00 北北西 7 10km以上 7 61 1015 周辺でしゅう雨
17 22:30 7 10km以上 7 66 1015
17 22:00 6 10km以上 7 61 1014
17 21:30 6 10km以上 8 53 1014
17 21:00 北北西 4 10km以上 8 53 1014
17 20:30 西北西 7 10km以上 9 53 1014
RJGG 191100Z 00000KT 9999 FEW030 08/01 Q1020 BECMG 04005KT
RJGG 191030Z 02005KT 350V080 9999 FEW030 09/01 Q1021 NOSIG
RJGG 191000Z 01006KT 9999 FEW030 08/00 Q1020 NOSIG
RJGG 190930Z 03004KT 9999 FEW030 09/00 Q1020 NOSIG
RJGG 190900Z 03007KT 360V080 9999 FEW030 09/01 Q1020 NOSIG
RJGG 190830Z 36010KT 9999 FEW020 09/00 Q1020 NOSIG
RJGG 190800Z 36010KT 9999 FEW020 09/00 Q1020 NOSIG
RJGG 190730Z 36011KT 9999 FEW020 10/00 Q1020 NOSIG
RJGG 190700Z 35008KT 9999 FEW020 11/M00 Q1021 NOSIG
RJGG 190630Z 34007KT 9999 FEW020 11/01 Q1021 NOSIG
RJGG 190600Z 33005KT 300V010 9999 FEW020 11/00 Q1021 NOSIG
RJGG 190530Z 32006KT 9999 FEW020 10/01 Q1021 NOSIG
RJGG 190500Z 32005KT 9999 FEW020 10/00 Q1021 NOSIG
RJGG 190430Z VRB02KT 9999 FEW020 SCT/// 10/01 Q1022 NOSIG
RJGG 190400Z VRB02KT 9999 FEW020 SCT/// 10/01 Q1022 NOSIG
RJGG 190330Z VRB01KT 9999 FEW020 SCT/// 09/00 Q1023 NOSIG
RJGG 190300Z 32003KT 300V360 9999 FEW020 SCT/// 09/01 Q1023 NOSIG
RJGG 190230Z 33005KT 9999 FEW020 09/01 Q1024 NOSIG
RJGG 190200Z 33004KT 9999 FEW020 08/02 Q1024 NOSIG
RJGG 190130Z 33006KT 9999 FEW020 08/02 Q1025 NOSIG
RJGG 190100Z 31005KT 9999 FEW020 08/03 Q1025 NOSIG
RJGG 190030Z 34008KT 9999 FEW020 07/02 Q1025 NOSIG
RJGG 190000Z 33008KT 9999 FEW020 07/03 Q1024 NOSIG
RJGG 182330Z 33009KT 9999 FEW020 SCT050 07/03 Q1024 NOSIG
RJGG 182300Z 33011KT 9999 FEW020 BKN050 06/02 Q1024 NOSIG
RJGG 182230Z 34009KT 9999 FEW020 BKN050 05/02 Q1024 NOSIG
RJGG 182200Z 33009KT 310V010 9999 FEW020 BKN050 05/02 Q1024 NOSIG
RJGG 182130Z 33010KT 9999 FEW020 BKN050 06/02 Q1024 NOSIG
RJGG 182100Z 33012KT 9999 FEW020 BKN040 05/01 Q1023 NOSIG
RJGG 182030Z 33013KT 9999 FEW020 BKN050 06/01 Q1023 NOSIG
RJGG 182000Z 33014KT 9999 FEW020 BKN050 06/01 Q1023 NOSIG
RJGG 181930Z 32014KT 9999 FEW020 BKN040 06/01 Q1023 NOSIG
RJGG 181900Z 33013KT 9999 FEW020 06/02 Q1023 NOSIG
RJGG 181830Z 33011KT 9999 FEW015 SCT050 05/01 Q1023 NOSIG
RJGG 181800Z 30011KT 9999 FEW015 BKN050 06/02 Q1023 NOSIG
RJGG 181730Z 31010KT 9999 FEW020 BKN050 06/02 Q1024 NOSIG
RJGG 181700Z 33008KT 9999 FEW020 SCT040 06/01 Q1023 NOSIG
RJGG 181630Z 35009KT 9999 FEW020 SCT040 04/M01 Q1023 NOSIG
RJGG 181600Z 34008KT 9999 FEW020 BKN040 06/00 Q1023 NOSIG
RJGG 181530Z 34009KT 9999 FEW020 BKN040 05/00 Q1023 NOSIG
RJGG 181500Z 33009KT 9999 FEW020 BKN040 05/M01 Q1023 NOSIG
RJGG 181430Z 35011KT 9999 FEW020 BKN040 06/00 Q1023 NOSIG
RJGG 181400Z 33013KT 9999 FEW020 BKN040 06/01 Q1024 NOSIG
RJGG 181330Z 34013KT 9999 FEW020 BKN040 07/01 Q1024 NOSIG
RJGG 181300Z 32012KT 9999 FEW020 BKN040 06/01 Q1023 NOSIG
RJGG 181230Z 33013KT 9999 FEW020 BKN040 06/00 Q1023 NOSIG
RJGG 181200Z 34013KT 9999 FEW030 06/01 Q1023 NOSIG
RJGG 181130Z 33018KT 9999 FEW030 05/M01 Q1023 NOSIG
RJGG 181100Z 33019KT 9999 FEW030 06/00 Q1023 NOSIG
RJGG 181030Z 32019KT 9999 FEW030 07/01 Q1023 NOSIG
RJGG 181000Z 34017KT 9999 FEW030 06/M01 Q1023 NOSIG
RJGG 180930Z 32018KT 9999 FEW030 07/00 Q1023 NOSIG
RJGG 180900Z 33018KT 9999 FEW030 07/M00 Q1022 NOSIG
RJGG 180830Z 32022KT 9999 FEW030 07/M00 Q1022 NOSIG
RJGG 180800Z 33021KT 9999 FEW030 SCT050 07/00 Q1022 NOSIG
RJGG 180730Z 33022KT 9999 FEW030 SCT050 07/00 Q1022 NOSIG
RJGG 180700Z 33024KT 9999 FEW030 SCT050 08/M00 Q1021 NOSIG
RJGG 180630Z 32020KT 9999 FEW030 SCT050 08/M01 Q1021 NOSIG
RJGG 180600Z 32020KT 9999 FEW030 SCT050 08/M01 Q1021 NOSIG
RJGG 180530Z 32024KT 9999 FEW030 SCT050 08/M01 Q1020 NOSIG
RJGG 180500Z 32023KT 9999 FEW030 08/M01 Q1020 NOSIG
RJGG 180430Z 32022KT 9999 FEW020 08/M01 Q1020 NOSIG
RJGG 180400Z 30020KT 9999 FEW020 08/M01 Q1021 NOSIG
RJGG 180330Z 31018KT 9999 FEW020 SCT050 08/M01 Q1021 NOSIG
RJGG 180300Z 32024KT 9999 FEW020 BKN050 07/M00 Q1021 NOSIG
RJGG 180230Z 34015G25KT 300V360 9999 FEW020 BKN050 07/M01 Q1022 NOSIG
RJGG 180200Z 34013KT 9999 FEW020 BKN050 07/M04 Q1022 NOSIG
RJGG 180130Z 34014KT 9999 FEW020 SCT050 07/M02 Q1022 NOSIG
RJGG 180100Z 35012KT 9999 FEW020 07/M04 Q1022 NOSIG
RJGG 180030Z 35016KT 9999 FEW020 06/M04 Q1022 NOSIG
RJGG 180000Z 35016KT 9999 FEW020 05/M04 Q1022 NOSIG
RJGG 172330Z 35018KT 9999 FEW020 SCT060 05/M05 Q1021 NOSIG
RJGG 172300Z 34016KT 9999 FEW020 SCT060 05/M03 Q1021 NOSIG
RJGG 172230Z 32017KT 9999 FEW020 05/M03 Q1021 NOSIG
RJGG 172200Z 32022KT 9999 FEW020 05/M01 Q1020 NOSIG
RJGG 172130Z 31025KT 9999 FEW020 BKN060 06/M01 Q1020 NOSIG
RJGG 172100Z 33020KT 9999 FEW020 BKN070 06/M01 Q1019 NOSIG
RJGG 172030Z 34020KT 9999 FEW020 BKN070 05/M03 Q1019 NOSIG
RJGG 172000Z 34022KT 9999 FEW020 BKN070 06/M01 Q1019 NOSIG
RJGG 171930Z 33021KT 9999 FEW020 06/00 Q1018 NOSIG
RJGG 171900Z 33022KT 9999 FEW020 06/01 Q1017 NOSIG
RJGG 171830Z 32024KT 9999 FEW020 07/01 Q1017 NOSIG
RJGG 171800Z 30021KT 9999 VCSH FEW020 07/03 Q1017 NOSIG
RJGG 171730Z 31024KT 9999 -RA FEW020 BKN060 07/02 Q1016 NOSIG
RJGG 171700Z 31021KT 9999 VCSH FEW020 SCT070 07/02 Q1016 NOSIG
RJGG 171630Z 32020KT 9999 VCSH FEW020 SCT070 07/02 Q1016 NOSIG
RJGG 171600Z 29020KT 9999 VCSH FEW020 07/02 Q1015 NOSIG
RJGG 171530Z 32018KT 9999 VCSH FEW020 BKN045 08/02 Q1016 NOSIG
RJGG 171500Z 33023KT 9999 -RA FEW020 BKN045 07/03 Q1016 NOSIG
RJGG 171430Z 34014KT 9999 VCSH FEW020 BKN050 07/01 Q1016 NOSIG
RJGG 171400Z 34013KT 9999 VCSH FEW020 BKN050 07/M00 Q1015 NOSIG
RJGG 171330Z 35014KT 9999 FEW020 BKN060 07/01 Q1015 NOSIG
RJGG 171300Z 01012KT 9999 FEW030 BKN060 07/00 Q1014 BECMG 30015KT
RJGG 171230Z 35011KT 9999 FEW030 BKN060 08/M01 Q1014 BECMG 30021KT
RJGG 171200Z 33008KT 9999 FEW030 SCT060 08/M01 Q1014 BECMG 30020KT
RJGG 171130Z 29013KT 9999 FEW030 BKN050 09/M00 Q1014 NOSIG